• Join FlightAware (Why Join?)
  • Login
  • US Flag 
08:29PM EDT


 

Airport Tracker/Info


-or-


 

Live Flight TrackerFlight Track Log ✈ RPA3161 ✈ 29-Apr-2013 ✈ KBTV - KDCA

Flight Track Log - Related Links

Times and Time Zones

All times are in EDT time to prevent confusion due to time zone crossing. See the RPA3161 flight status page for this flight to view local times or setup timezone preferences in your user account.

Time Position Orientation Groundspeed Altitude Reporting Facility
EDT Latitude Longitude Course Direction KTS MPH feet Rate Location/Type
12:21PM 44.1912 -73.2533 195° South  Level FlightAware Approximate
12:21PM 44.3425 -73.1600 195° South 238 274 6,200  Level Boston Center
12:22PM 44.0988 -73.2880 195° South  Level FlightAware Approximate
12:22PM 44.2839 -73.1825 195° South 267 307 8,900  Level Boston Center
12:23PM 44.0060 -73.3203 194° South  Level FlightAware Approximate
12:23PM 44.2108 -73.2133 197° South 267 307 10,800  Level Boston Center
12:24PM 43.9130 -73.3514 195° South  Level FlightAware Approximate
12:24PM 44.1294 -73.2469 197° South 289 333 12,900  Level Boston Center
12:25PM 43.8207 -73.3861 195° South  Level FlightAware Approximate
12:25PM 44.0519 -73.2778 196° South 315 362 15,200  Level Boston Center
12:26PM 43.7283 -73.4207 195° South  Level FlightAware Approximate
12:26PM 43.9642 -73.3142 197° South 331 381 17,100  Level Boston Center
12:27PM 43.8722 -73.3531 197° South 341 392 18,900 1,800 Climbing Boston Center
12:28PM 43.7803 -73.3889 196° South 341 392 20,700 1,560 Climbing Boston Center
12:29PM 43.6842 -73.4306 197° South 352 405 22,100 1,500 Climbing Boston Center
12:30PM 43.5858 -73.4692 196° South 357 411 23,800 1,500 Climbing Boston Center
12:31PM 43.4833 -73.4903 188° South 368 423 25,200 1,380 Climbing Boston Center
12:32PM 43.3772 -73.4969 183° South 378 435 26,600 1,380 Climbing Boston Center
12:33PM 43.2667 -73.5036 183° South 388 447 28,000 1,260 Climbing Boston Center
12:34PM 43.1539 -73.5072 181° South 398 458 29,200 1,140 Climbing Boston Center
12:35PM 43.0289 -73.5136 182° South 412 474 30,300 1,080 Climbing Boston Center
12:36PM 42.9100 -73.5172 181° South 417 480 31,400 1,200 Climbing Boston Center
12:37PM 42.7975 -73.5239 182° South 422 486 32,800 1,320 Climbing Boston Center
12:38PM 42.6828 -73.5303 182° South 422 486 34,100 1,020 Climbing Boston Center
12:39PM 42.5681 -73.5367 182° South 422 486 34,900 780 Climbing Boston Center
12:40PM 42.4514 -73.5403 181° South 422 486 35,700 540 Climbing Boston Center
12:41PM 42.3367 -73.5439 181° South 422 486 36,000 120 Climbing Boston Center
12:42PM 42.2367 -73.5394 178° South 415 478 36,000  Level Boston Center
12:43PM 42.1242 -73.5458 182° South 415 478 36,000  Level Boston Center
12:44PM 41.9947 -73.5575 184° South 420 483 36,000  Level Boston Center
12:45PM 41.8947 -73.5611 182° South 420 483 36,000  Level Boston Center
12:47PM 41.7350 -73.6342 199° South 362 417 36,000  Level New York Center
12:48PM 41.6478 -73.7083 212° Southwest 367 422 36,000  Level New York Center
12:49PM 41.5669 -73.7767 212° Southwest 373 429 36,000  Level New York Center
12:50PM 41.4797 -73.8447 210° Southwest 368 423 36,000  Level New York Center
12:51PM 41.3786 -73.8900 199° South 368 423 36,000  Level New York Center
12:52PM 41.2900 -73.9300 199° South 381 438 36,000 -720 Level New York Center
12:53PM 41.1719 -73.9850 199° South 381 438 34,600 -1,440 Descending New York Center
12:54PM 41.0769 -74.0300 200° South 381 438 33,200 -1,620 Descending New York Center
12:55PM 40.9958 -74.1086 216° Southwest 371 427 31,400 -1,860 Descending New York Center
12:56PM 40.9264 -74.2042 226° Southwest 356 410 29,600 -1,920 Descending New York Center
12:57PM 40.8569 -74.2992 226° Southwest 361 415 27,600 -1,800 Descending New York Center
12:58PM 40.7892 -74.4000 228° Southwest 366 421 26,000 -840 Descending New York Center
12:59PM 40.7256 -74.5061 232° Southwest 372 428 26,000  Level New York Center
01:00PM 40.6639 -74.6094 232° Southwest 372 428 26,000 -60 Level New York Center
01:01PM 40.6019 -74.7125 232° Southwest 367 422 25,900  Descending New York Center
01:02PM 40.5342 -74.8125 228° Southwest 362 417 26,000  Climbing New York Center
01:03PM 40.4661 -74.9067 226° Southwest 368 423 26,000  Level New York Center
01:04PM 40.4003 -75.0033 228° Southwest 368 423 26,000 -300 Level New York Center
01:05PM 40.3322 -75.0972 226° Southwest 368 423 25,400 -1,260 Descending New York Center
01:06PM 40.2661 -75.1939 228° Southwest 368 423 23,500 -1,980 Descending New York Center
01:07PM 40.1981 -75.2847 226° Southwest 363 418 21,600 -1,800 Descending New York Center
01:08PM 40.1339 -75.3781 228° Southwest 358 412 20,000 -840 Descending New York Center
01:09PM 40.0678 -75.4714 227° Southwest 358 412 20,000  Level New York Center
01:10PM 40.0017 -75.5619 226° Southwest 358 412 20,000  Level New York Center
01:11PM 39.9356 -75.6494 225° Southwest 358 412 20,000 -120 Level New York Center
01:12PM 39.8858 -75.7381 234° Southwest 347 399 19,800 -840 Descending New York Center
01:13PM 39.8297 -75.8367 233° Southwest 322 371 18,400 -1,320 Descending New York Center
01:14PM 39.7861 -75.9256 237° Southwest 313 360 17,200 -1,320 Descending New York Center
01:15PM 39.7669 -76.0319 257° West 307 353 15,900 -1,320 Descending New York Center
01:16PM 39.7542 -76.1283 260° West 302 348 14,600 -1,380 Descending New York Center
01:17PM 39.6981 -76.2158 230° Southwest 295 339 13,200 -1,260 Descending New York Center
01:18PM 39.6167 -76.2833 213° Southwest 293 337 12,000 -600 Descending Potomac TRACON
01:19PM 39.5500 -76.3333 210° Southwest 292 336 12,000  Level Potomac TRACON
01:20PM 39.4833 -76.4000 218° Southwest 295 339 12,000  Level Potomac TRACON
01:21PM 39.4167 -76.4500 210° Southwest 294 338 12,000 -660 Level Potomac TRACON
01:22PM 39.3500 -76.5167 218° Southwest 293 337 10,800 -1,020 Descending Potomac TRACON
01:23PM 39.2833 -76.5667 210° Southwest 285 328 10,000 -420 Descending Potomac TRACON
01:24PM 39.2167 -76.6167 210° Southwest 286 329 10,000  Level Potomac TRACON
01:25PM 39.1500 -76.6833 218° Southwest 287 330 10,000  Level Potomac TRACON
01:26PM 39.1000 -76.7500 226° Southwest 286 329 10,000 -60 Level Potomac TRACON
01:27PM 39.0333 -76.8167 218° Southwest 254 292 9,900 -480 Descending Potomac TRACON
01:28PM 39.0000 -76.8667 229° Southwest 216 249 9,100 -1,020 Descending Potomac TRACON
01:29PM 38.9667 -76.9333 237° Southwest 218 251 7,900 -1,320 Descending Potomac TRACON
01:30PM 38.9833 -77.0167 284° West 216 249 6,700 -1,020 Descending Potomac TRACON
01:31PM 39.0167 -77.0667 311° West 222 255 6,000 -780 Descending Potomac TRACON
01:32PM 39.0500 -77.1167 311° West 201 231 5,200 -540 Descending Potomac TRACON
01:33PM 39.0833 -77.1667 311° West 198 228 5,000 -480 Descending Potomac TRACON
01:33PM 39.0833 -77.2167 270° West 152 175 4,300 -1,020 Descending Potomac TRACON
01:35PM 39.0500 -77.2167 180° South 145 167 3,000 -660 Descending Potomac TRACON
01:35PM 39.0000 -77.1833 153° Southeast 152 175 3,000 -60 Level Potomac TRACON
01:36PM 38.9667 -77.1667 159° South 147 169 2,900 -420 Descending Potomac TRACON
01:37PM 38.9500 -77.1333 123° Southeast 145 167 2,300 -720 Descending Potomac TRACON